Time;durP1;ratioP1;P1;durP2;ratioP2;P2;SDS_P1;SDS_P2;PMS_P1;PMS_P2;Temp;Humidity;BMP_temperature;BMP_pressure;BME280_temperature;BME280_humidity;BME280_pressure;Samples;Min_cycle;Max_cycle;Signal;HPM_P1;HPM_P2
2021/01/08 00:00:24;;;;;;;32.03;18.35;;;;;;;;;;777831;178;919908;-72
2021/01/08 00:02:50;;;;;;;35.47;18.17;;;;;;;;;;776235;178;918891;-72
2021/01/08 00:05:16;;;;;;;30.30;15.98;;;;;;;;;;772292;178;918667;-72
2021/01/08 00:07:42;;;;;;;36.23;18.67;;;;;;;;;;776669;179;919313;-72
2021/01/08 00:10:08;;;;;;;31.23;16.60;;;;;;;;;;779504;179;918404;-72
2021/01/08 00:12:34;;;;;;;31.42;16.35;;;;;;;;;;773370;178;918892;-72
2021/01/08 00:15:00;;;;;;;26.23;16.77;;;;;;;;;;775588;177;917974;-72
2021/01/08 00:17:26;;;;;;;34.47;17.00;;;;;;;;;;779647;178;921439;-71
2021/01/08 00:19:52;;;;;;;40.37;20.43;;;;;;;;;;774754;179;919226;-72
2021/01/08 00:22:17;;;;;;;29.67;18.83;;;;;;;;;;774792;178;918151;-72
2021/01/08 00:24:43;;;;;;;34.13;18.70;;;;;;;;;;778163;178;917686;-72
2021/01/08 00:27:09;;;;;;;28.20;17.67;;;;;;;;;;768484;179;919448;-72
2021/01/08 00:29:35;;;;;;;31.33;19.47;;;;;;;;;;775738;179;918425;-72
2021/01/08 00:32:01;;;;;;;31.40;18.00;;;;;;;;;;777430;177;992223;-73
2021/01/08 00:34:27;;;;;;;34.13;18.70;;;;;;;;;;776514;180;918727;-71
2021/01/08 00:36:52;;;;;;;39.30;20.70;;;;;;;;;;774241;177;918940;-72
2021/01/08 00:39:18;;;;;;;38.80;20.70;;;;;;;;;;775642;179;919231;-70
2021/01/08 00:41:44;;;;;;;40.57;22.50;;;;;;;;;;782018;179;918450;-72
2021/01/08 00:44:10;;;;;;;41.20;20.37;;;;;;;;;;779682;178;918894;-71
2021/01/08 00:46:36;;;;;;;34.67;21.67;;;;;;;;;;779493;179;918891;-72
2021/01/08 00:49:02;;;;;;;37.00;20.40;;;;;;;;;;780568;179;915786;-72
2021/01/08 00:51:28;;;;;;;40.83;22.13;;;;;;;;;;774804;178;920247;-72
2021/01/08 00:53:53;;;;;;;40.33;22.95;;;;;;;;;;776729;178;919118;-71
2021/01/08 00:56:19;;;;;;;37.47;21.30;;;;;;;;;;784857;178;919412;-72
2021/01/08 00:58:45;;;;;;;35.10;20.83;;;;;;;;;;780017;176;657882;-71
2021/01/08 01:01:11;;;;;;;39.00;21.53;;;;;;;;;;776024;178;918789;-71
2021/01/08 01:03:37;;;;;;;41.60;22.25;;;;;;;;;;772655;178;918435;-71
2021/01/08 01:06:03;;;;;;;40.33;21.87;;;;;;;;;;788060;178;918723;-72
2021/01/08 01:08:28;;;;;;;35.50;22.03;;;;;;;;;;774412;178;919059;-71
2021/01/08 01:10:54;;;;;;;38.33;19.87;;;;;;;;;;777987;178;918528;-71
2021/01/08 01:13:20;;;;;;;46.43;25.00;;;;;;;;;;781469;178;920719;-72
2021/01/08 01:15:46;;;;;;;41.00;23.27;;;;;;;;;;779117;178;918800;-71
2021/01/08 01:18:12;;;;;;;39.70;21.13;;;;;;;;;;774890;178;944022;-71
2021/01/08 01:20:38;;;;;;;39.70;21.20;;;;;;;;;;778655;179;918745;-71
2021/01/08 01:23:04;;;;;;;32.67;20.70;;;;;;;;;;777126;178;918935;-71
2021/01/08 01:25:30;;;;;;;39.57;23.77;;;;;;;;;;773056;178;919245;-71
2021/01/08 01:27:56;;;;;;;42.57;23.23;;;;;;;;;;785262;178;917773;-70
2021/01/08 01:30:22;;;;;;;37.80;21.27;;;;;;;;;;773937;180;632009;-72
2021/01/08 01:32:48;;;;;;;35.93;20.97;;;;;;;;;;774791;179;918656;-72
2021/01/08 01:35:13;;;;;;;40.20;23.13;;;;;;;;;;755584;183;918301;-71
2021/01/08 01:37:39;;;;;;;41.10;23.00;;;;;;;;;;751423;185;918918;-70
2021/01/08 01:40:06;;;;;;;39.73;22.27;;;;;;;;;;748848;184;949923;-71
2021/01/08 01:42:31;;;;;;;34.57;20.13;;;;;;;;;;752803;184;919112;-72
2021/01/08 01:44:57;;;;;;;38.38;23.20;;;;;;;;;;751785;181;916707;-72
2021/01/08 01:47:23;;;;;;;41.87;21.60;;;;;;;;;;778650;178;919368;-71
2021/01/08 01:49:49;;;;;;;37.97;21.52;;;;;;;;;;776208;178;918857;-72
2021/01/08 01:52:15;;;;;;;41.97;21.70;;;;;;;;;;775773;179;926144;-73
2021/01/08 01:54:41;;;;;;;35.20;21.47;;;;;;;;;;772939;179;920439;-72
2021/01/08 01:57:06;;;;;;;41.67;21.80;;;;;;;;;;778857;179;919097;-71
2021/01/08 01:59:32;;;;;;;42.85;22.42;;;;;;;;;;776243;179;1152257;-72
2021/01/08 02:01:58;;;;;;;39.13;22.80;;;;;;;;;;775130;179;919222;-72
2021/01/08 02:04:24;;;;;;;41.93;23.90;;;;;;;;;;775460;179;920234;-71
2021/01/08 02:06:50;;;;;;;49.20;25.97;;;;;;;;;;770793;177;918873;-71
2021/01/08 02:09:16;;;;;;;44.17;24.53;;;;;;;;;;781743;179;918517;-71
2021/01/08 02:11:42;;;;;;;38.87;22.40;;;;;;;;;;774991;177;918717;-71
2021/01/08 02:14:07;;;;;;;38.20;23.60;;;;;;;;;;780925;178;919826;-70
2021/01/08 02:16:34;;;;;;;40.87;22.23;;;;;;;;;;780670;178;917567;-71
2021/01/08 02:19:00;;;;;;;41.53;23.90;;;;;;;;;;778185;179;918774;-70
2021/01/08 02:21:28;;;;;;;45.03;24.10;;;;;;;;;;774737;177;919128;-70
2021/01/08 02:23:59;;;;;;;44.93;24.60;;;;;;;;;;777869;177;920022;-71
2021/01/08 02:26:25;;;;;;;45.53;23.00;;;;;;;;;;763669;180;2036451;-71
2021/01/08 02:28:51;;;;;;;42.23;22.83;;;;;;;;;;778599;178;920198;-71
2021/01/08 02:31:17;;;;;;;48.37;25.27;;;;;;;;;;773597;178;920036;-71
2021/01/08 02:33:42;;;;;;;43.30;24.37;;;;;;;;;;777498;179;920006;-71
2021/01/08 02:36:08;;;;;;;50.37;24.27;;;;;;;;;;774177;178;922672;-71
2021/01/08 02:38:34;;;;;;;44.38;24.37;;;;;;;;;;774788;178;919155;-70
2021/01/08 02:41:01;;;;;;;48.07;23.30;;;;;;;;;;777481;178;919082;-69
2021/01/08 02:43:26;;;;;;;44.07;23.10;;;;;;;;;;772439;179;919300;-70
2021/01/08 02:45:52;;;;;;;39.53;22.97;;;;;;;;;;772099;179;918882;-71
2021/01/08 02:48:18;;;;;;;42.58;23.10;;;;;;;;;;772893;178;975806;-70
2021/01/08 02:50:43;;;;;;;35.63;21.30;;;;;;;;;;780062;178;917335;-70
2021/01/08 02:53:09;;;;;;;43.70;23.63;;;;;;;;;;774372;177;916649;-70
2021/01/08 02:55:35;;;;;;;44.07;23.47;;;;;;;;;;781187;177;915199;-70
2021/01/08 02:58:01;;;;;;;44.17;22.40;;;;;;;;;;783980;178;915022;-69
2021/01/08 03:00:27;;;;;;;40.63;24.17;;;;;;;;;;779637;179;628826;-71
2021/01/08 03:02:53;;;;;;;41.90;22.80;;;;;;;;;;773611;178;920949;-70
2021/01/08 03:05:18;;;;;;;39.17;23.10;;;;;;;;;;787585;178;618602;-70
2021/01/08 03:07:44;;;;;;;37.60;22.33;;;;;;;;;;773785;178;919370;-69
2021/01/08 03:10:11;;;;;;;43.45;21.60;;;;;;;;;;769874;179;919089;-70
2021/01/08 03:12:37;;;;;;;41.03;21.70;;;;;;;;;;769500;178;918995;-69
2021/01/08 03:15:03;;;;;;;42.90;24.30;;;;;;;;;;783367;178;918892;-69
2021/01/08 03:17:31;;;;;;;47.47;27.10;;;;;;;;;;772219;178;919354;-69
2021/01/08 03:19:57;;;;;;;42.47;23.83;;;;;;;;;;777495;178;918628;-69
2021/01/08 03:22:23;;;;;;;41.57;22.83;;;;;;;;;;780331;179;918642;-69
2021/01/08 03:24:49;;;;;;;38.50;21.00;;;;;;;;;;776020;177;918030;-69
2021/01/08 03:27:15;;;;;;;39.97;21.67;;;;;;;;;;777685;178;918435;-69
2021/01/08 03:29:40;;;;;;;47.30;24.60;;;;;;;;;;773360;177;1305479;-69
2021/01/08 03:32:06;;;;;;;41.30;23.63;;;;;;;;;;785478;177;916310;-69
2021/01/08 03:34:32;;;;;;;46.53;22.37;;;;;;;;;;779511;177;915235;-69
2021/01/08 03:36:58;;;;;;;43.90;23.07;;;;;;;;;;768794;178;918987;-68
2021/01/08 03:39:24;;;;;;;39.30;22.27;;;;;;;;;;778286;178;919349;-69
2021/01/08 03:41:50;;;;;;;40.90;23.27;;;;;;;;;;774748;178;918522;-69
2021/01/08 03:44:15;;;;;;;43.10;22.43;;;;;;;;;;772161;178;918830;-69
2021/01/08 03:46:41;;;;;;;44.97;22.47;;;;;;;;;;781919;178;919155;-69
2021/01/08 03:49:07;;;;;;;38.47;22.20;;;;;;;;;;768772;178;1737297;-69
2021/01/08 03:51:33;;;;;;;39.50;22.15;;;;;;;;;;779657;178;918673;-69
2021/01/08 03:53:59;;;;;;;44.17;22.90;;;;;;;;;;784100;178;917947;-69
2021/01/08 03:56:25;;;;;;;32.37;20.70;;;;;;;;;;776362;178;953394;-69
2021/01/08 03:58:51;;;;;;;46.00;21.40;;;;;;;;;;776449;178;921390;-69
2021/01/08 04:01:17;;;;;;;43.05;20.42;;;;;;;;;;768019;179;919342;-67
2021/01/08 04:03:43;;;;;;;42.53;22.13;;;;;;;;;;772509;179;896387;-68
2021/01/08 04:06:09;;;;;;;44.00;22.30;;;;;;;;;;769395;178;918979;-68
2021/01/08 04:08:35;;;;;;;41.50;21.00;;;;;;;;;;778190;179;918715;-68
2021/01/08 04:11:00;;;;;;;40.93;22.20;;;;;;;;;;779928;178;919319;-69
2021/01/08 04:13:26;;;;;;;44.30;22.87;;;;;;;;;;770644;179;918995;-68
2021/01/08 04:15:52;;;;;;;39.67;20.00;;;;;;;;;;770052;178;973804;-69
2021/01/08 04:18:18;;;;;;;39.63;21.70;;;;;;;;;;781721;179;919476;-68
2021/01/08 04:20:44;;;;;;;35.40;21.00;;;;;;;;;;775107;178;919661;-69
2021/01/08 04:23:10;;;;;;;38.23;20.13;;;;;;;;;;776852;178;918555;-68
2021/01/08 04:25:36;;;;;;;40.23;20.57;;;;;;;;;;776419;178;919160;-69
2021/01/08 04:28:01;;;;;;;39.37;22.07;;;;;;;;;;780374;178;942999;-68
2021/01/08 04:30:28;;;;;;;35.30;18.63;;;;;;;;;;777617;177;918846;-69
2021/01/08 04:32:54;;;;;;;31.27;18.47;;;;;;;;;;778215;178;918765;-69
2021/01/08 04:35:19;;;;;;;31.80;19.67;;;;;;;;;;781029;179;919157;-68
2021/01/08 04:37:45;;;;;;;33.20;18.97;;;;;;;;;;773547;177;918975;-69
2021/01/08 04:40:11;;;;;;;29.10;17.23;;;;;;;;;;776201;178;1024153;-68
2021/01/08 04:42:37;;;;;;;29.77;17.77;;;;;;;;;;778147;178;918938;-69
2021/01/08 04:45:03;;;;;;;34.23;18.87;;;;;;;;;;775831;178;919931;-68
2021/01/08 04:47:29;;;;;;;30.07;19.10;;;;;;;;;;772413;178;918632;-68
2021/01/08 04:49:55;;;;;;;30.10;16.37;;;;;;;;;;783274;178;921833;-69
2021/01/08 04:52:21;;;;;;;32.63;17.97;;;;;;;;;;775448;178;900834;-68
2021/01/08 04:54:47;;;;;;;32.40;20.00;;;;;;;;;;776758;177;919282;-67
2021/01/08 04:57:13;;;;;;;27.60;16.70;;;;;;;;;;766683;178;2729425;-67
2021/01/08 04:59:39;;;;;;;31.93;17.80;;;;;;;;;;767766;180;917684;-68
2021/01/08 05:02:05;;;;;;;32.27;19.27;;;;;;;;;;768547;178;1520296;-68
2021/01/08 05:04:30;;;;;;;26.57;15.87;;;;;;;;;;772328;178;912432;-67
2021/01/08 05:06:56;;;;;;;33.15;17.25;;;;;;;;;;776443;179;918291;-70
2021/01/08 05:09:22;;;;;;;31.73;17.70;;;;;;;;;;776726;178;915536;-67
2021/01/08 05:11:48;;;;;;;28.10;16.35;;;;;;;;;;773839;179;936783;-68
2021/01/08 05:14:14;;;;;;;30.17;17.10;;;;;;;;;;779275;179;918247;-68
2021/01/08 05:16:40;;;;;;;32.53;19.33;;;;;;;;;;776805;178;915927;-67
2021/01/08 05:19:05;;;;;;;29.73;17.02;;;;;;;;;;769984;179;919477;-67
2021/01/08 05:21:31;;;;;;;27.93;14.70;;;;;;;;;;781478;179;918275;-69
2021/01/08 05:23:58;;;;;;;32.17;16.97;;;;;;;;;;766856;179;993617;-68
2021/01/08 05:26:24;;;;;;;31.63;18.37;;;;;;;;;;776501;178;919176;-68
2021/01/08 05:28:52;;;;;;;33.20;20.10;;;;;;;;;;774850;179;919808;-68
2021/01/08 05:31:18;;;;;;;36.70;20.23;;;;;;;;;;771367;180;919072;-68
2021/01/08 05:33:44;;;;;;;36.57;20.40;;;;;;;;;;773376;177;918986;-68
2021/01/08 05:36:10;;;;;;;35.40;21.57;;;;;;;;;;771975;178;920250;-68
2021/01/08 05:38:36;;;;;;;35.10;19.50;;;;;;;;;;780070;178;919337;-68
2021/01/08 05:41:02;;;;;;;35.10;19.03;;;;;;;;;;777958;177;919623;-68
2021/01/08 05:43:28;;;;;;;39.40;19.70;;;;;;;;;;774290;178;1196313;-68
2021/01/08 05:45:53;;;;;;;40.53;19.83;;;;;;;;;;781382;178;915661;-68
2021/01/08 05:48:20;;;;;;;42.63;21.70;;;;;;;;;;775933;178;934735;-69
2021/01/08 05:50:46;;;;;;;48.10;24.30;;;;;;;;;;775090;178;918764;-68
2021/01/08 05:53:12;;;;;;;44.43;22.53;;;;;;;;;;778350;177;918104;-68
2021/01/08 05:55:38;;;;;;;43.07;24.07;;;;;;;;;;777481;178;917396;-69
2021/01/08 05:58:10;;;;;;;41.57;22.63;;;;;;;;;;779911;177;919928;-68
2021/01/08 06:00:36;;;;;;;43.10;21.17;;;;;;;;;;774005;178;918605;-68
2021/01/08 06:03:02;;;;;;;32.33;18.42;;;;;;;;;;781426;178;815925;-69
2021/01/08 06:05:27;;;;;;;42.03;21.53;;;;;;;;;;769312;178;2065113;-68
2021/01/08 06:07:53;;;;;;;36.20;20.05;;;;;;;;;;777991;178;919204;-69
2021/01/08 06:10:19;;;;;;;39.83;20.20;;;;;;;;;;769223;179;919385;-69
2021/01/08 06:12:45;;;;;;;37.83;20.62;;;;;;;;;;776007;180;919181;-69
2021/01/08 06:15:11;;;;;;;35.03;19.97;;;;;;;;;;773295;178;918431;-69
2021/01/08 06:17:37;;;;;;;36.90;20.43;;;;;;;;;;773828;178;918333;-68
2021/01/08 06:20:03;;;;;;;33.67;19.92;;;;;;;;;;776863;177;918882;-69
2021/01/08 06:22:35;;;;;;;31.70;19.85;;;;;;;;;;780696;178;916850;-69
2021/01/08 06:25:01;;;;;;;34.38;19.02;;;;;;;;;;772477;178;1231350;-69
2021/01/08 06:27:27;;;;;;;35.80;19.23;;;;;;;;;;775339;179;920043;-69
2021/01/08 06:29:52;;;;;;;30.50;19.60;;;;;;;;;;776036;179;917328;-69
2021/01/08 06:32:18;;;;;;;33.00;18.03;;;;;;;;;;767362;177;931219;-69
2021/01/08 06:34:44;;;;;;;29.03;16.60;;;;;;;;;;773036;178;1021039;-70
2021/01/08 06:37:10;;;;;;;30.97;18.10;;;;;;;;;;777116;179;917089;-70
2021/01/08 06:39:37;;;;;;;23.03;13.93;;;;;;;;;;774072;179;918409;-70
2021/01/08 06:42:02;;;;;;;28.93;16.30;;;;;;;;;;771279;179;919661;-70
2021/01/08 06:44:28;;;;;;;20.90;12.75;;;;;;;;;;779115;179;919120;-70
2021/01/08 06:46:54;;;;;;;26.50;14.90;;;;;;;;;;768749;179;919402;-73
2021/01/08 06:49:20;;;;;;;31.98;14.75;;;;;;;;;;768197;178;943216;-71
2021/01/08 06:51:46;;;;;;;28.30;14.43;;;;;;;;;;775585;178;916235;-71
2021/01/08 06:54:12;;;;;;;29.40;16.13;;;;;;;;;;775587;178;915810;-71
2021/01/08 06:56:38;;;;;;;23.83;14.90;;;;;;;;;;773702;178;912817;-71
2021/01/08 06:59:04;;;;;;;23.93;16.63;;;;;;;;;;772883;178;918585;-71
2021/01/08 07:01:31;;;;;;;24.03;13.60;;;;;;;;;;776520;178;914170;-71
2021/01/08 07:03:57;;;;;;;26.27;15.13;;;;;;;;;;777455;178;919126;-70
2021/01/08 07:06:23;;;;;;;25.27;13.80;;;;;;;;;;777542;178;918450;-74
2021/01/08 07:08:49;;;;;;;31.67;15.33;;;;;;;;;;778501;178;819042;-70
2021/01/08 07:11:21;;;;;;;30.77;15.87;;;;;;;;;;776792;178;918902;-71
2021/01/08 07:13:46;;;;;;;25.23;15.20;;;;;;;;;;774285;178;901197;-71
2021/01/08 07:16:14;;;;;;;28.90;16.10;;;;;;;;;;777756;177;916335;-71
2021/01/08 07:18:40;;;;;;;28.43;16.63;;;;;;;;;;779808;178;915758;-71
2021/01/08 07:21:06;;;;;;;25.07;14.97;;;;;;;;;;769922;178;921845;-73
2021/01/08 07:23:32;;;;;;;32.30;17.80;;;;;;;;;;769322;178;928859;-71
2021/01/08 07:25:57;;;;;;;32.73;18.07;;;;;;;;;;782065;178;919458;-71
2021/01/08 07:28:23;;;;;;;38.57;22.27;;;;;;;;;;771107;178;919059;-71
2021/01/08 07:30:49;;;;;;;51.07;26.47;;;;;;;;;;778022;179;1020544;-71
2021/01/08 07:33:16;;;;;;;32.00;19.07;;;;;;;;;;774518;178;1218735;-72
2021/01/08 07:35:42;;;;;;;34.87;19.90;;;;;;;;;;773320;179;918014;-72
2021/01/08 07:38:07;;;;;;;32.80;17.43;;;;;;;;;;768038;179;918372;-71
2021/01/08 07:40:33;;;;;;;36.97;20.00;;;;;;;;;;776407;178;919081;-71
2021/01/08 07:43:03;;;;;;;38.70;20.05;;;;;;;;;;778681;178;918954;-71
2021/01/08 07:45:35;;;;;;;41.67;21.60;;;;;;;;;;773136;178;919058;-70
2021/01/08 07:48:00;;;;;;;34.37;20.80;;;;;;;;;;773576;179;1021698;-72
2021/01/08 07:50:26;;;;;;;40.30;22.60;;;;;;;;;;778856;178;919692;-71
2021/01/08 07:52:52;;;;;;;38.13;19.37;;;;;;;;;;769461;180;920078;-72
2021/01/08 07:55:24;;;;;;;35.67;19.23;;;;;;;;;;769025;178;922467;-71
2021/01/08 07:57:56;;;;;;;53.43;26.60;;;;;;;;;;772792;178;1020538;-71
2021/01/08 08:00:26;;;;;;;43.37;22.20;;;;;;;;;;771674;180;918866;-71
2021/01/08 08:02:50;;;;;;;41.80;20.53;;;;;;;;;;773449;180;917922;-72
2021/01/08 08:05:16;;;;;;;35.20;17.47;;;;;;;;;;773637;178;919114;-71
2021/01/08 08:07:42;;;;;;;35.87;19.23;;;;;;;;;;772688;178;918938;-72
2021/01/08 08:10:08;;;;;;;42.83;21.20;;;;;;;;;;781024;178;918973;-70
2021/01/08 08:12:34;;;;;;;38.80;23.90;;;;;;;;;;779747;178;919839;-72
2021/01/08 08:15:00;;;;;;;33.77;20.43;;;;;;;;;;776407;178;918405;-71
2021/01/08 08:17:26;;;;;;;32.40;17.33;;;;;;;;;;782255;178;919490;-72
2021/01/08 08:19:52;;;;;;;38.13;20.10;;;;;;;;;;774145;178;918590;-71
2021/01/08 08:22:18;;;;;;;34.57;19.87;;;;;;;;;;773769;177;915781;-71
2021/01/08 08:24:44;;;;;;;32.73;19.10;;;;;;;;;;769476;178;917288;-72
2021/01/08 08:27:09;;;;;;;38.80;19.67;;;;;;;;;;773361;181;919754;-72
2021/01/08 08:29:36;;;;;;;50.47;28.10;;;;;;;;;;774421;178;919148;-72
2021/01/08 08:32:02;;;;;;;37.27;22.93;;;;;;;;;;776455;178;919182;-72
2021/01/08 08:34:28;;;;;;;38.70;22.13;;;;;;;;;;779002;178;919031;-73
2021/01/08 08:36:54;;;;;;;35.67;23.10;;;;;;;;;;772302;178;919229;-72
2021/01/08 08:39:20;;;;;;;36.63;21.67;;;;;;;;;;781638;178;918661;-74
2021/01/08 08:41:48;;;;;;;39.70;23.77;;;;;;;;;;777732;178;917449;-75
2021/01/08 08:44:12;;;;;;;39.83;21.35;;;;;;;;;;775041;178;919232;-76
2021/01/08 08:46:46;;;;;;;34.00;21.07;;;;;;;;;;770877;177;1020667;-76
2021/01/08 08:49:11;;;;;;;38.37;20.90;;;;;;;;;;772099;179;918656;-75
2021/01/08 08:51:40;;;;;;;44.80;21.27;;;;;;;;;;779077;178;917674;-75
2021/01/08 08:54:06;;;;;;;46.30;25.13;;;;;;;;;;779673;179;918404;-75
2021/01/08 08:56:32;;;;;;;32.70;19.73;;;;;;;;;;778579;178;918693;-74
2021/01/08 08:58:58;;;;;;;28.20;16.70;;;;;;;;;;784358;178;918934;-73
2021/01/08 09:01:23;;;;;;;25.23;15.30;;;;;;;;;;769175;178;1563322;-73
2021/01/08 09:03:49;;;;;;;26.00;14.90;;;;;;;;;;767265;178;918143;-72
2021/01/08 09:06:15;;;;;;;30.03;15.83;;;;;;;;;;769425;178;919147;-72
2021/01/08 09:08:41;;;;;;;24.00;15.43;;;;;;;;;;779740;179;820303;-70
2021/01/08 09:11:12;;;;;;;25.47;15.43;;;;;;;;;;769874;179;918810;-69
2021/01/08 09:13:39;;;;;;;30.67;18.25;;;;;;;;;;778669;178;921346;-68
2021/01/08 09:16:07;;;;;;;32.73;20.10;;;;;;;;;;780251;177;922151;-67
2021/01/08 09:18:34;;;;;;;31.40;17.63;;;;;;;;;;776195;179;918859;-67
2021/01/08 09:21:01;;;;;;;33.13;19.60;;;;;;;;;;772310;178;920674;-67
2021/01/08 09:23:27;;;;;;;31.87;18.10;;;;;;;;;;774305;178;919771;-67
2021/01/08 09:25:52;;;;;;;31.00;18.53;;;;;;;;;;780095;178;917183;-67
2021/01/08 09:28:18;;;;;;;34.77;19.57;;;;;;;;;;767384;177;1821582;-68
2021/01/08 09:30:50;;;;;;;35.90;18.93;;;;;;;;;;777026;177;1016740;-69
2021/01/08 09:33:16;;;;;;;33.60;19.00;;;;;;;;;;773137;178;914553;-70
2021/01/08 09:35:42;;;;;;;34.27;16.97;;;;;;;;;;778009;180;918915;-69
2021/01/08 09:38:09;;;;;;;39.35;18.70;;;;;;;;;;774031;179;919814;-69
2021/01/08 09:40:35;;;;;;;27.40;18.10;;;;;;;;;;774576;178;918035;-70
2021/01/08 09:43:00;;;;;;;31.43;17.87;;;;;;;;;;779364;178;917646;-70
2021/01/08 09:45:26;;;;;;;27.33;15.65;;;;;;;;;;774718;178;919628;-71
2021/01/08 09:47:52;;;;;;;30.03;17.07;;;;;;;;;;772442;178;919848;-70
2021/01/08 09:50:22;;;;;;;28.23;17.53;;;;;;;;;;781247;178;904816;-69
2021/01/08 09:52:48;;;;;;;25.60;16.53;;;;;;;;;;776078;178;919174;-71
2021/01/08 09:55:14;;;;;;;26.58;16.05;;;;;;;;;;773301;179;917296;-71
2021/01/08 09:57:43;;;;;;;30.30;17.60;;;;;;;;;;768232;179;2044538;-70
2021/01/08 10:00:06;;;;;;;29.10;16.33;;;;;;;;;;774905;180;918283;-71
2021/01/08 10:02:32;;;;;;;30.45;18.05;;;;;;;;;;777677;178;918880;-70
2021/01/08 10:04:57;;;;;;;23.93;16.50;;;;;;;;;;772821;178;917647;-70
2021/01/08 10:07:23;;;;;;;27.13;15.57;;;;;;;;;;776025;180;918976;-70
2021/01/08 10:09:51;;;;;;;33.87;16.60;;;;;;;;;;770005;179;919755;-70
2021/01/08 10:12:17;;;;;;;27.02;16.45;;;;;;;;;;776683;178;920655;-70
2021/01/08 10:14:43;;;;;;;29.53;18.43;;;;;;;;;;773321;178;941975;-70
2021/01/08 10:17:09;;;;;;;26.43;17.57;;;;;;;;;;774161;179;919389;-70
2021/01/08 10:19:35;;;;;;;28.30;16.87;;;;;;;;;;772572;178;918970;-69
2021/01/08 10:22:01;;;;;;;33.73;18.67;;;;;;;;;;773005;179;919538;-67
2021/01/08 10:24:26;;;;;;;25.97;15.23;;;;;;;;;;774829;178;1018025;-69
2021/01/08 10:26:52;;;;;;;28.47;16.70;;;;;;;;;;778677;178;918974;-68
2021/01/08 10:29:18;;;;;;;28.10;17.70;;;;;;;;;;771606;177;918832;-70
2021/01/08 10:31:44;;;;;;;23.13;13.23;;;;;;;;;;775155;179;919452;-69
2021/01/08 10:34:10;;;;;;;26.60;14.47;;;;;;;;;;777639;177;914603;-69
2021/01/08 10:36:38;;;;;;;23.77;15.47;;;;;;;;;;774124;177;915763;-68
2021/01/08 10:39:02;;;;;;;29.80;16.03;;;;;;;;;;781159;178;916023;-68
2021/01/08 10:41:28;;;;;;;29.13;15.53;;;;;;;;;;774333;177;916042;-68
2021/01/08 10:43:54;;;;;;;27.33;16.33;;;;;;;;;;777260;177;915625;-68
2021/01/08 10:46:21;;;;;;;30.27;17.45;;;;;;;;;;774727;178;919496;-66
2021/01/08 10:48:46;;;;;;;32.00;17.30;;;;;;;;;;770526;180;914528;-69
2021/01/08 10:51:12;;;;;;;29.20;16.00;;;;;;;;;;772705;178;908207;-68
2021/01/08 10:53:38;;;;;;;29.30;17.03;;;;;;;;;;773739;178;920493;-69
2021/01/08 10:56:04;;;;;;;34.10;18.07;;;;;;;;;;780507;178;917834;-67
2021/01/08 10:58:30;;;;;;;30.60;17.20;;;;;;;;;;778711;178;913214;-68
2021/01/08 11:00:56;;;;;;;30.77;18.27;;;;;;;;;;771004;178;914138;-68
2021/01/08 11:03:21;;;;;;;31.80;18.60;;;;;;;;;;781865;178;912987;-67
2021/01/08 11:05:47;;;;;;;31.40;18.83;;;;;;;;;;767965;178;1631534;-69
2021/01/08 11:08:13;;;;;;;35.07;20.70;;;;;;;;;;779274;178;918531;-69
2021/01/08 11:10:39;;;;;;;32.67;19.27;;;;;;;;;;776527;178;911275;-68
2021/01/08 11:13:05;;;;;;;35.63;20.33;;;;;;;;;;771970;178;924989;-69
2021/01/08 11:15:31;;;;;;;32.07;16.73;;;;;;;;;;772364;178;919610;-69
2021/01/08 11:17:57;;;;;;;29.23;17.40;;;;;;;;;;771891;178;915596;-69
2021/01/08 11:20:22;;;;;;;34.83;19.73;;;;;;;;;;777108;179;914347;-68
2021/01/08 11:22:48;;;;;;;33.63;19.30;;;;;;;;;;773433;178;915782;-68
2021/01/08 11:25:14;;;;;;;32.57;19.60;;;;;;;;;;775565;178;919106;-68
2021/01/08 11:27:40;;;;;;;28.53;18.30;;;;;;;;;;772050;178;919229;-68
2021/01/08 11:30:07;;;;;;;30.20;19.10;;;;;;;;;;776988;179;914730;-68
2021/01/08 11:32:32;;;;;;;31.37;19.37;;;;;;;;;;774180;179;918999;-68
2021/01/08 11:34:58;;;;;;;30.20;16.47;;;;;;;;;;777593;179;919234;-68
2021/01/08 11:37:24;;;;;;;24.83;15.20;;;;;;;;;;770541;178;890915;-68
2021/01/08 11:39:50;;;;;;;23.97;14.53;;;;;;;;;;777722;178;919071;-68
2021/01/08 11:42:17;;;;;;;33.50;16.13;;;;;;;;;;774568;178;919202;-67
2021/01/08 11:44:43;;;;;;;22.80;14.80;;;;;;;;;;776041;179;918168;-68
2021/01/08 11:47:09;;;;;;;27.10;15.70;;;;;;;;;;779694;177;919591;-68
2021/01/08 11:49:35;;;;;;;40.73;17.67;;;;;;;;;;773147;178;919118;-68
2021/01/08 11:52:01;;;;;;;26.30;15.27;;;;;;;;;;782334;178;919081;-69
2021/01/08 11:54:27;;;;;;;23.27;14.03;;;;;;;;;;772195;178;918859;-68
2021/01/08 11:56:53;;;;;;;23.60;15.20;;;;;;;;;;776268;178;918922;-68
2021/01/08 11:59:19;;;;;;;29.83;14.10;;;;;;;;;;778339;178;1317336;-67
2021/01/08 12:01:44;;;;;;;22.48;14.80;;;;;;;;;;772990;178;917689;-68
2021/01/08 12:04:11;;;;;;;26.67;14.83;;;;;;;;;;770454;178;918867;-68
2021/01/08 12:06:38;;;;;;;22.90;13.95;;;;;;;;;;782046;178;920131;-67
2021/01/08 12:09:03;;;;;;;26.50;14.67;;;;;;;;;;770115;180;918505;-69
2021/01/08 12:11:29;;;;;;;25.60;14.30;;;;;;;;;;775354;178;919643;-68
2021/01/08 12:13:56;;;;;;;22.50;12.15;;;;;;;;;;773906;178;998364;-69
2021/01/08 12:16:25;;;;;;;24.03;14.10;;;;;;;;;;782164;177;918845;-68
2021/01/08 12:18:51;;;;;;;25.43;14.17;;;;;;;;;;774669;178;918716;-68
2021/01/08 12:21:17;;;;;;;24.00;13.63;;;;;;;;;;775633;179;918707;-68
2021/01/08 12:23:43;;;;;;;25.07;14.27;;;;;;;;;;777105;178;919175;-68
2021/01/08 12:26:12;;;;;;;24.70;15.70;;;;;;;;;;776176;178;1521712;-68
2021/01/08 12:28:38;;;;;;;25.33;15.00;;;;;;;;;;776388;179;1021526;-68
2021/01/08 12:31:04;;;;;;;23.80;13.43;;;;;;;;;;770910;179;920541;-66
2021/01/08 12:33:30;;;;;;;25.90;15.17;;;;;;;;;;780221;179;919042;-68
2021/01/08 12:35:56;;;;;;;25.30;14.13;;;;;;;;;;771816;179;918661;-67
2021/01/08 12:38:22;;;;;;;25.17;15.57;;;;;;;;;;778250;178;918641;-68
2021/01/08 12:40:47;;;;;;;23.70;14.40;;;;;;;;;;778763;179;920090;-67
2021/01/08 12:43:13;;;;;;;24.10;14.03;;;;;;;;;;777070;179;919665;-68
2021/01/08 12:45:39;;;;;;;28.07;16.40;;;;;;;;;;771338;178;973633;-68
2021/01/08 12:48:06;;;;;;;28.90;16.17;;;;;;;;;;770288;180;920706;-67
2021/01/08 12:50:32;;;;;;;28.93;16.80;;;;;;;;;;777080;178;905165;-67
2021/01/08 12:52:58;;;;;;;31.83;17.40;;;;;;;;;;776082;178;919366;-68
2021/01/08 12:55:24;;;;;;;27.90;16.53;;;;;;;;;;776104;179;918962;-67
2021/01/08 12:57:51;;;;;;;32.97;16.67;;;;;;;;;;785782;179;919264;-68
2021/01/08 13:00:18;;;;;;;29.13;17.30;;;;;;;;;;773033;178;918550;-69
2021/01/08 13:02:43;;;;;;;27.60;15.07;;;;;;;;;;781350;178;633917;-69
2021/01/08 13:05:09;;;;;;;32.10;17.27;;;;;;;;;;783934;177;633984;-68
2021/01/08 13:07:35;;;;;;;33.50;19.70;;;;;;;;;;771944;177;1743031;-69
2021/01/08 13:10:01;;;;;;;25.63;15.50;;;;;;;;;;783559;178;628643;-69
2021/01/08 13:12:27;;;;;;;26.10;16.43;;;;;;;;;;780610;178;614479;-68
2021/01/08 13:14:52;;;;;;;27.97;15.93;;;;;;;;;;778652;178;921081;-67
2021/01/08 13:17:18;;;;;;;25.53;15.00;;;;;;;;;;770553;179;919164;-69
2021/01/08 13:19:44;;;;;;;32.17;16.80;;;;;;;;;;777276;178;919104;-67
2021/01/08 13:22:10;;;;;;;27.50;17.90;;;;;;;;;;779052;178;919224;-67
2021/01/08 13:24:36;;;;;;;27.65;16.95;;;;;;;;;;774616;178;1034271;-68
2021/01/08 13:27:02;;;;;;;26.47;15.80;;;;;;;;;;779515;178;918915;-67
2021/01/08 13:29:28;;;;;;;26.73;15.23;;;;;;;;;;781785;178;919568;-68
2021/01/08 13:31:53;;;;;;;24.83;16.20;;;;;;;;;;771383;179;919331;-68
2021/01/08 13:34:19;;;;;;;26.33;17.63;;;;;;;;;;778102;177;913742;-67
2021/01/08 13:36:45;;;;;;;31.63;16.80;;;;;;;;;;775338;179;917778;-68
2021/01/08 13:39:11;;;;;;;31.47;15.07;;;;;;;;;;775588;179;919044;-68
2021/01/08 13:41:37;;;;;;;23.52;14.82;;;;;;;;;;775174;179;918769;-67
2021/01/08 13:44:04;;;;;;;25.05;12.07;;;;;;;;;;777452;178;923659;-67
2021/01/08 13:46:29;;;;;;;25.53;13.70;;;;;;;;;;769753;181;918839;-68
2021/01/08 13:48:55;;;;;;;25.00;14.97;;;;;;;;;;772599;178;920880;-68
2021/01/08 13:51:23;;;;;;;22.23;12.80;;;;;;;;;;775456;178;916945;-68
2021/01/08 13:53:49;;;;;;;25.12;13.40;;;;;;;;;;780674;178;947516;-68
2021/01/08 13:56:15;;;;;;;20.60;14.37;;;;;;;;;;773777;179;919136;-68